METAR Data
IDs: Format: Raw Decoded Include TAF

Data at: 1728 UTC 30 Oct 2020

KPIT 301651Z 31015G20KT 10SM BKN014 OVC025 07/04 A3006 RMK AO2 SLP191 T00670039 $

KPIT 301723Z 3018/3124 32010G18KT P6SM VCSH BKN018
  FM302000 32010G18KT P6SM OVC025
  FM302200 32009G17KT P6SM BKN045
  FM302300 32008KT P6SM BKN040
  FM310900 00000KT P6SM SCT030
  FM311300 14004KT P6SM SCT250